createdAt,value
2022-10-22T00:01:52.016Z,5.53
2022-10-22T00:04:18.377Z,7.57
2022-10-22T00:06:45.065Z,8.63
2022-10-22T00:09:12.902Z,8.00
2022-10-22T00:11:39.710Z,10.65
2022-10-22T00:14:06.116Z,6.28
2022-10-22T00:16:32.539Z,8.02
2022-10-22T00:18:58.928Z,9.07
2022-10-22T00:21:28.884Z,7.03
2022-10-22T00:23:55.821Z,6.07
2022-10-22T00:26:22.901Z,8.23
2022-10-22T00:28:49.269Z,10.68
2022-10-22T00:31:15.724Z,7.65
2022-10-22T00:33:42.166Z,9.15
2022-10-22T00:36:08.902Z,6.32
2022-10-22T00:38:35.336Z,13.55
2022-10-22T00:43:33.093Z,9.52
2022-10-22T00:45:59.491Z,8.27
2022-10-22T00:48:28.278Z,4.90
2022-10-22T00:50:58.328Z,8.98
2022-10-22T00:53:28.840Z,8.48
2022-10-22T00:55:55.658Z,10.48
2022-10-22T00:58:27.734Z,10.07
2022-10-22T01:00:55.386Z,7.50
2022-10-22T01:03:22.261Z,9.98
2022-10-22T01:05:55.743Z,9.20
2022-10-22T01:08:44.052Z,6.65
2022-10-22T01:11:35.771Z,6.53
2022-10-22T01:14:21.828Z,10.48
2022-10-22T01:16:57.279Z,9.98
2022-10-22T01:19:32.893Z,8.82
2022-10-22T01:22:23.757Z,9.95
2022-10-22T01:25:09.341Z,8.65
2022-10-22T01:27:44.762Z,7.03
2022-10-22T01:30:12.878Z,7.72
2022-10-22T01:32:54.889Z,10.80
2022-10-22T01:35:31.188Z,9.35
2022-10-22T01:38:00.160Z,7.65
2022-10-22T01:40:27.156Z,9.70
2022-10-22T01:42:58.450Z,7.65
2022-10-22T01:45:25.212Z,7.03
2022-10-22T01:48:13.410Z,7.30
2022-10-22T01:50:45.909Z,7.55
2022-10-22T01:53:24.808Z,7.82
2022-10-22T01:56:10.220Z,7.63
2022-10-22T01:58:39.534Z,12.57
2022-10-22T02:01:13.526Z,8.13
2022-10-22T02:04:09.989Z,8.35
2022-10-22T02:06:37.427Z,7.68
2022-10-22T02:09:04.056Z,6.57
2022-10-22T02:11:30.486Z,5.82
2022-10-22T02:13:59.511Z,9.27
2022-10-22T02:16:30.709Z,7.00
2022-10-22T02:18:58.452Z,6.18
2022-10-22T02:21:24.971Z,9.20
2022-10-22T02:23:51.617Z,9.55
2022-10-22T02:26:38.557Z,8.15
2022-10-22T02:29:15.333Z,6.68
2022-10-22T02:31:43.710Z,7.90
2022-10-22T02:34:16.785Z,5.97
2022-10-22T02:36:46.736Z,8.23
2022-10-22T02:39:17.785Z,8.23
2022-10-22T02:41:44.280Z,5.13
2022-10-22T02:44:11.109Z,8.75
2022-10-22T02:46:39.161Z,8.63
2022-10-22T02:49:05.961Z,6.22
2022-10-22T02:51:32.353Z,11.50
2022-10-22T02:53:58.764Z,7.78
2022-10-22T02:56:25.134Z,6.30
2022-10-22T02:58:51.500Z,9.57
2022-10-22T03:01:17.901Z,5.70
2022-10-22T03:03:44.361Z,15.25
2022-10-22T03:06:10.743Z,9.07
2022-10-22T03:08:37.147Z,11.55
2022-10-22T03:11:03.990Z,7.60
2022-10-22T03:13:30.366Z,9.13
2022-10-22T03:15:56.733Z,7.45
2022-10-22T03:18:23.155Z,8.98
2022-10-22T03:20:49.567Z,12.05
2022-10-22T03:23:18.390Z,10.00
2022-10-22T03:25:45.912Z,8.27
2022-10-22T03:28:14.114Z,12.98
2022-10-22T03:30:40.508Z,11.20
2022-10-22T03:33:06.866Z,9.15
2022-10-22T03:35:36.584Z,7.97
2022-10-22T03:40:29.305Z,12.82
2022-10-22T03:42:55.733Z,9.85
2022-10-22T03:45:22.097Z,10.00
2022-10-22T03:47:48.455Z,8.15
2022-10-22T03:50:15.046Z,9.90
2022-10-22T03:52:41.441Z,10.30
2022-10-22T03:55:09.820Z,9.80
2022-10-22T03:57:36.778Z,9.95
2022-10-22T04:00:04.639Z,8.73
2022-10-22T04:02:31.004Z,10.55
2022-10-22T04:04:57.382Z,11.70
2022-10-22T04:07:23.746Z,8.00
2022-10-22T04:09:50.118Z,11.45
2022-10-22T04:12:16.495Z,10.98
2022-10-22T04:14:42.938Z,9.77
2022-10-22T04:17:09.321Z,7.78
2022-10-22T04:19:35.788Z,9.32
2022-10-22T04:22:02.173Z,10.85
2022-10-22T04:24:30.839Z,10.88
2022-10-22T04:26:57.262Z,7.10
2022-10-22T04:29:24.402Z,10.77
2022-10-22T04:31:51.058Z,9.27
2022-10-22T04:34:17.443Z,12.88
2022-10-22T04:36:43.823Z,8.55
2022-10-22T04:39:10.176Z,9.40
2022-10-22T04:41:38.744Z,10.00
2022-10-22T04:44:06.520Z,7.57
2022-10-22T04:46:34.823Z,9.25
2022-10-22T04:49:03.277Z,8.73
2022-10-22T04:51:29.853Z,12.95
2022-10-22T04:53:56.261Z,13.40
2022-10-22T04:56:30.400Z,10.63
2022-10-22T04:59:02.331Z,7.35
2022-10-22T05:01:37.009Z,12.50
2022-10-22T05:04:08.679Z,14.43
2022-10-22T05:06:36.395Z,11.20
2022-10-22T05:09:08.644Z,10.32
2022-10-22T05:11:37.089Z,12.50
2022-10-22T05:14:05.616Z,12.73
2022-10-22T05:16:33.178Z,10.57
2022-10-22T05:19:00.510Z,9.52
2022-10-22T05:21:27.368Z,8.43
2022-10-22T05:23:54.908Z,7.60
2022-10-22T05:26:22.568Z,12.95
2022-10-22T05:28:49.836Z,8.70
2022-10-22T05:31:17.528Z,10.63
2022-10-22T05:33:44.356Z,10.02
2022-10-22T05:36:17.191Z,10.73
2022-10-22T05:38:43.601Z,10.90
2022-10-22T05:41:12.371Z,10.23
2022-10-22T05:43:38.828Z,10.38
2022-10-22T05:46:07.962Z,8.48
2022-10-22T05:48:34.612Z,13.35
2022-10-22T05:51:06.315Z,11.20
2022-10-22T05:53:33.718Z,11.07
2022-10-22T05:56:05.545Z,9.60
2022-10-22T05:58:32.373Z,12.57
2022-10-22T06:01:16.188Z,15.07
2022-10-22T06:03:43.628Z,7.75
2022-10-22T06:06:34.931Z,9.35
2022-10-22T06:09:19.585Z,11.73
2022-10-22T06:11:51.854Z,10.02
2022-10-22T06:14:19.371Z,8.70
2022-10-22T06:17:23.747Z,9.77
2022-10-22T06:19:56.063Z,11.70
2022-10-22T06:22:22.546Z,15.05
2022-10-22T06:24:48.975Z,11.93
2022-10-22T06:27:15.411Z,14.75
2022-10-22T06:29:41.845Z,11.45
2022-10-22T06:32:08.285Z,11.80
2022-10-22T06:34:34.729Z,10.23
2022-10-22T06:37:01.111Z,11.60
2022-10-22T06:39:27.663Z,10.45
2022-10-22T06:41:54.070Z,11.38
2022-10-22T06:44:20.788Z,9.82
2022-10-22T06:46:51.989Z,7.60
2022-10-22T06:49:19.318Z,12.60
2022-10-22T06:51:48.868Z,10.80
2022-10-22T06:54:15.238Z,9.65
2022-10-22T06:56:41.720Z,9.18
2022-10-22T06:59:08.085Z,9.93
2022-10-22T07:01:35.362Z,9.13
2022-10-22T07:04:02.289Z,10.73
2022-10-22T07:06:29.174Z,11.05
2022-10-22T07:08:57.319Z,11.27
2022-10-22T07:11:26.721Z,9.27
2022-10-22T07:13:57.927Z,13.52
2022-10-22T07:16:29.571Z,10.32
2022-10-22T07:18:58.948Z,10.45
2022-10-22T07:21:26.087Z,12.38
2022-10-22T07:23:52.557Z,11.02
2022-10-22T07:26:20.351Z,10.45
2022-10-22T07:28:47.129Z,9.90
2022-10-22T07:31:14.966Z,12.07
2022-10-22T07:33:41.380Z,9.18
2022-10-22T07:36:09.632Z,12.05
2022-10-22T07:38:36.036Z,9.65
2022-10-22T07:41:03.182Z,11.60
2022-10-22T07:43:29.829Z,11.93
2022-10-22T07:45:56.191Z,10.02
2022-10-22T07:48:23.365Z,12.38
2022-10-22T07:50:52.943Z,7.82
2022-10-22T07:53:21.134Z,8.38
2022-10-22T07:55:51.729Z,10.65
2022-10-22T07:58:18.681Z,8.57
2022-10-22T08:00:45.481Z,10.43
2022-10-22T08:03:12.515Z,11.57
2022-10-22T08:05:43.723Z,11.50
2022-10-22T08:08:11.138Z,8.63
2022-10-22T08:10:37.995Z,8.60
2022-10-22T08:13:04.499Z,7.88
2022-10-22T08:15:31.112Z,10.00
2022-10-22T08:17:57.487Z,8.85
2022-10-22T08:20:23.857Z,8.52
2022-10-22T08:22:50.246Z,8.45
2022-10-22T08:25:17.997Z,7.35
2022-10-22T08:27:44.804Z,8.70
2022-10-22T08:30:12.301Z,9.13
2022-10-22T08:32:38.726Z,9.77
2022-10-22T08:35:05.269Z,11.07
2022-10-22T08:37:31.646Z,7.65
2022-10-22T08:39:58.030Z,9.93
2022-10-22T08:42:42.928Z,10.60
2022-10-22T08:45:13.390Z,8.07
2022-10-22T08:47:52.954Z,11.60
2022-10-22T08:50:24.671Z,6.90
2022-10-22T08:52:54.260Z,7.72
2022-10-22T08:57:49.930Z,11.32
2022-10-22T09:00:40.204Z,11.02
2022-10-22T09:03:36.585Z,8.65
2022-10-22T09:06:05.944Z,14.15
2022-10-22T09:08:32.487Z,9.02
2022-10-22T09:11:06.114Z,10.88
2022-10-22T09:13:32.646Z,11.07
2022-10-22T09:16:23.640Z,9.20
2022-10-22T09:19:02.197Z,9.50
2022-10-22T09:21:52.700Z,9.52
2022-10-22T09:24:39.767Z,9.85
2022-10-22T09:27:16.045Z,9.40
2022-10-22T09:29:43.945Z,7.88
2022-10-22T09:32:10.522Z,9.50
2022-10-22T09:34:37.068Z,8.60
2022-10-22T09:37:06.756Z,8.13
2022-10-22T09:42:06.701Z,9.45
2022-10-22T09:44:34.937Z,5.72
2022-10-22T09:47:37.251Z,10.13
2022-10-22T09:50:27.951Z,9.18
2022-10-22T09:52:59.152Z,9.07
2022-10-22T09:55:26.310Z,11.05
2022-10-22T09:57:57.516Z,9.10
2022-10-22T10:00:27.632Z,7.78
2022-10-22T10:02:58.350Z,7.43
2022-10-22T10:05:27.962Z,12.18
2022-10-22T10:07:54.327Z,12.43
2022-10-22T10:10:35.415Z,10.38
2022-10-22T10:13:40.647Z,7.78
2022-10-22T10:16:13.132Z,13.32
2022-10-22T10:18:57.931Z,5.88
2022-10-22T10:21:42.709Z,8.38
2022-10-22T10:24:22.119Z,8.32
2022-10-22T10:27:23.681Z,5.45
2022-10-22T10:30:06.588Z,7.03
2022-10-22T10:32:35.838Z,7.93
2022-10-22T10:35:22.133Z,9.93
2022-10-22T10:37:54.508Z,6.45
2022-10-22T10:40:33.609Z,11.70
2022-10-22T10:43:21.545Z,9.38
2022-10-22T10:45:57.453Z,7.63
2022-10-22T10:48:31.537Z,8.43
2022-10-22T10:51:32.333Z,8.27
2022-10-22T10:54:15.478Z,9.65
2022-10-22T10:56:45.859Z,6.60
2022-10-22T10:59:30.832Z,7.18
2022-10-22T11:02:21.605Z,7.28
2022-10-22T11:05:19.643Z,9.45
2022-10-22T11:08:03.713Z,11.23
2022-10-22T11:10:35.260Z,10.10
2022-10-22T11:13:22.873Z,7.60
2022-10-22T11:16:14.864Z,9.95
2022-10-22T11:18:56.425Z,6.00
2022-10-22T11:21:40.059Z,14.75
2022-10-22T11:24:30.290Z,6.50
2022-10-22T11:27:25.576Z,9.23
2022-10-22T11:29:56.334Z,10.35
2022-10-22T11:32:23.693Z,7.80
2022-10-22T11:34:54.250Z,6.70
2022-10-22T11:37:22.436Z,7.38
2022-10-22T11:39:55.212Z,7.40
2022-10-22T11:42:30.155Z,7.80
2022-10-22T11:45:13.168Z,7.97
2022-10-22T11:47:53.380Z,10.90
2022-10-22T11:50:22.710Z,9.15
2022-10-22T11:53:12.817Z,7.85
2022-10-22T11:56:10.148Z,8.35
2022-10-22T11:58:44.835Z,10.63
2022-10-22T12:01:11.156Z,7.50
2022-10-22T12:03:44.447Z,13.52
2022-10-22T12:06:15.465Z,8.07
2022-10-22T12:08:44.339Z,8.85
2022-10-22T12:11:10.615Z,7.03
2022-10-22T12:14:01.272Z,10.57
2022-10-22T12:16:43.955Z,12.50
2022-10-22T12:19:38.426Z,11.48
2022-10-22T12:22:07.719Z,13.57
2022-10-22T12:24:40.482Z,10.98
2022-10-22T12:27:37.697Z,7.20
2022-10-22T12:30:28.426Z,13.75
2022-10-22T12:33:00.462Z,9.65
2022-10-22T12:35:29.114Z,9.05
2022-10-22T12:37:57.713Z,11.48
2022-10-22T12:40:26.396Z,8.57
2022-10-22T12:42:55.526Z,12.07
2022-10-22T12:45:23.748Z,9.85
2022-10-22T12:47:52.634Z,10.15
2022-10-22T12:50:21.470Z,8.68
2022-10-22T12:52:48.352Z,6.78
2022-10-22T12:55:20.076Z,9.18
2022-10-22T12:57:48.575Z,11.13
2022-10-22T13:00:26.552Z,8.52
2022-10-22T13:02:54.105Z,7.85
2022-10-22T13:05:23.454Z,10.73
2022-10-22T13:08:10.447Z,11.73
2022-10-22T13:10:41.484Z,13.60
2022-10-22T13:13:30.509Z,8.98
2022-10-22T13:15:56.881Z,12.25
2022-10-22T13:18:25.089Z,9.30
2022-10-22T13:20:52.634Z,10.27
2022-10-22T13:23:20.870Z,11.25
2022-10-22T13:26:17.122Z,7.05
2022-10-22T13:28:50.525Z,10.32
2022-10-22T13:31:23.956Z,7.28
2022-10-22T13:34:03.698Z,11.15
2022-10-22T13:36:34.347Z,12.02
2022-10-22T13:39:00.835Z,9.68
2022-10-22T13:41:30.964Z,8.07
2022-10-22T13:43:57.461Z,10.65
2022-10-22T13:46:25.147Z,9.15
2022-10-22T13:48:53.987Z,12.48
2022-10-22T13:51:22.862Z,15.10
2022-10-22T13:53:50.408Z,12.90
2022-10-22T13:56:18.471Z,10.25
2022-10-22T13:58:46.333Z,12.90
2022-10-22T14:01:18.671Z,11.80
2022-10-22T14:03:45.665Z,12.77
2022-10-22T14:06:14.052Z,13.00
2022-10-22T14:08:40.523Z,12.70
2022-10-22T14:11:10.111Z,13.45
2022-10-22T14:16:05.479Z,9.27
2022-10-22T14:18:33.040Z,13.40
2022-10-22T14:21:04.720Z,10.70
2022-10-22T14:23:32.270Z,11.30
2022-10-22T14:25:59.895Z,16.20
2022-10-22T14:28:26.468Z,9.73
2022-10-22T14:30:53.968Z,11.50
2022-10-22T14:33:29.043Z,8.02
2022-10-22T14:35:59.575Z,9.30
2022-10-22T14:38:26.125Z,9.25
2022-10-22T14:40:52.511Z,11.10
2022-10-22T14:43:22.703Z,12.73
2022-10-22T14:45:49.305Z,9.75
2022-10-22T14:48:16.142Z,10.70
2022-10-22T14:50:43.992Z,10.65
2022-10-22T14:53:11.153Z,9.07
2022-10-22T14:55:37.547Z,11.15
2022-10-22T14:58:03.935Z,11.60
2022-10-22T15:00:30.445Z,12.48
2022-10-22T15:02:59.648Z,10.65
2022-10-22T15:05:28.110Z,8.85
2022-10-22T15:07:54.520Z,17.25
2022-10-22T15:10:21.021Z,11.85
2022-10-22T15:12:47.376Z,13.32
2022-10-22T15:15:13.736Z,11.98
2022-10-22T15:17:40.462Z,13.95
2022-10-22T15:20:07.371Z,13.15
2022-10-22T15:22:35.284Z,10.57
2022-10-22T15:25:04.338Z,8.80
2022-10-22T15:27:30.985Z,13.77
2022-10-22T15:29:58.995Z,10.55
2022-10-22T15:32:26.557Z,12.38
2022-10-22T15:34:54.377Z,11.18
2022-10-22T15:37:21.209Z,10.32
2022-10-22T15:39:47.682Z,11.77
2022-10-22T15:42:14.515Z,13.85
2022-10-22T15:44:41.079Z,13.27
2022-10-22T15:47:07.928Z,13.85
2022-10-22T15:49:36.748Z,13.80
2022-10-22T15:52:04.471Z,13.88
2022-10-22T15:54:31.071Z,11.80
2022-10-22T15:56:59.756Z,14.55
2022-10-22T15:59:26.144Z,9.30
2022-10-22T16:01:52.558Z,13.80
2022-10-22T16:04:19.123Z,16.23
2022-10-22T16:06:47.637Z,12.05
2022-10-22T16:09:17.111Z,16.42
2022-10-22T16:14:15.269Z,11.75
2022-10-22T16:16:46.426Z,15.27
2022-10-22T16:19:13.977Z,13.27
2022-10-22T16:21:40.392Z,13.00
2022-10-22T16:24:08.018Z,14.13
2022-10-22T16:26:35.219Z,13.75
2022-10-22T16:29:01.891Z,10.90
2022-10-22T16:31:28.306Z,16.63
2022-10-22T16:33:55.369Z,17.83
2022-10-22T16:36:22.485Z,19.48
2022-10-22T16:38:49.052Z,17.70
2022-10-22T16:41:17.583Z,16.83
2022-10-22T16:43:46.889Z,17.13
2022-10-22T16:46:13.347Z,13.93
2022-10-22T16:48:41.988Z,14.65
2022-10-22T16:51:10.342Z,19.10
2022-10-22T16:53:36.946Z,17.13
2022-10-22T16:56:03.483Z,22.02
2022-10-22T16:58:29.918Z,16.30
2022-10-22T17:00:56.347Z,16.20
2022-10-22T17:03:24.613Z,18.45
2022-10-22T17:05:53.944Z,19.63
2022-10-22T17:08:20.334Z,18.10
2022-10-22T17:10:46.841Z,19.77
2022-10-22T17:13:13.209Z,23.48
2022-10-22T17:15:40.388Z,25.17
2022-10-22T17:18:06.781Z,17.23
2022-10-22T17:20:33.165Z,19.02
2022-10-22T17:22:59.510Z,14.38
2022-10-22T17:25:37.017Z,20.92
2022-10-22T17:28:03.415Z,20.70
2022-10-22T17:30:30.345Z,25.00
2022-10-22T17:32:56.759Z,24.55
2022-10-22T17:35:23.196Z,20.25
2022-10-22T17:37:49.588Z,20.88
2022-10-22T17:40:15.956Z,21.70
2022-10-22T17:42:42.620Z,21.45
2022-10-22T17:45:09.473Z,21.08
2022-10-22T17:47:36.298Z,20.17
2022-10-22T17:50:02.670Z,18.33
2022-10-22T17:52:29.022Z,17.77
2022-10-22T17:54:55.381Z,19.95
2022-10-22T17:57:23.037Z,15.93
2022-10-22T17:59:49.400Z,20.83
2022-10-22T18:02:17.726Z,15.52
2022-10-22T18:04:44.269Z,14.13
2022-10-22T18:07:10.773Z,16.88
2022-10-22T18:09:37.348Z,14.88
2022-10-22T18:12:03.805Z,17.70
2022-10-22T18:14:30.269Z,13.18
2022-10-22T18:16:56.687Z,17.38
2022-10-22T18:19:24.420Z,17.02
2022-10-22T18:21:50.816Z,17.70
2022-10-22T18:24:17.640Z,15.90
2022-10-22T18:26:44.313Z,21.65
2022-10-22T18:29:14.860Z,28.48
2022-10-22T18:31:41.372Z,24.45
2022-10-22T18:34:07.818Z,27.42
2022-10-22T18:36:34.292Z,25.25
2022-10-22T18:39:01.891Z,24.50
2022-10-22T18:41:30.021Z,25.98
2022-10-22T18:43:58.871Z,23.08
2022-10-22T18:46:26.292Z,22.30
2022-10-22T18:48:53.868Z,23.58
2022-10-22T18:51:20.714Z,23.92
2022-10-22T18:53:59.199Z,19.27
2022-10-22T18:56:36.696Z,23.13
2022-10-22T18:59:03.090Z,25.63
2022-10-22T19:01:29.566Z,23.80
2022-10-22T19:03:56.766Z,24.08
2022-10-22T19:06:33.325Z,23.80
2022-10-22T19:09:04.094Z,21.85
2022-10-22T19:11:30.650Z,21.13
2022-10-22T19:13:57.102Z,18.88
2022-10-22T19:16:23.959Z,23.05
2022-10-22T19:18:51.922Z,20.45
2022-10-22T19:21:18.590Z,21.80
2022-10-22T19:26:18.189Z,23.77
2022-10-22T19:28:45.267Z,25.83
2022-10-22T19:31:17.321Z,25.67
2022-10-22T19:33:43.741Z,24.73
2022-10-22T19:36:12.492Z,23.70
2022-10-22T19:38:40.944Z,26.83
2022-10-22T19:41:08.645Z,19.23
2022-10-22T19:43:35.012Z,25.48
2022-10-22T19:46:01.684Z,25.80
2022-10-22T19:48:29.669Z,21.70
2022-10-22T19:51:02.612Z,22.30
2022-10-22T19:53:30.492Z,22.23
2022-10-22T19:55:58.559Z,26.40
2022-10-22T19:58:25.367Z,21.98
2022-10-22T20:00:51.907Z,22.25
2022-10-22T20:03:19.965Z,18.63
2022-10-22T20:05:47.452Z,25.73
2022-10-22T20:08:13.989Z,24.55
2022-10-22T20:10:40.362Z,23.27
2022-10-22T20:13:06.727Z,25.30
2022-10-22T20:15:33.161Z,22.05
2022-10-22T20:17:59.906Z,21.45
2022-10-22T20:20:26.728Z,22.40
2022-10-22T20:22:54.063Z,24.60
2022-10-22T20:25:20.429Z,20.33
2022-10-22T20:27:46.795Z,20.00
2022-10-22T20:30:14.002Z,22.90
2022-10-22T20:32:40.905Z,26.17
2022-10-22T20:35:07.745Z,28.02
2022-10-22T20:37:34.379Z,23.45
2022-10-22T20:40:00.758Z,18.02
2022-10-22T20:42:27.226Z,23.20
2022-10-22T20:44:56.139Z,16.88
2022-10-22T20:47:44.700Z,21.23
2022-10-22T20:50:31.416Z,25.42
2022-10-22T20:52:58.358Z,20.48
2022-10-22T20:55:27.050Z,18.25
2022-10-22T21:10:37.401Z,19.05
2022-10-22T21:24:38.846Z,20.73
2022-10-22T21:43:05.890Z,17.67
2022-10-22T23:07:52.890Z,19.83
2022-10-22T23:16:46.657Z,18.42
2022-10-22T23:19:26.932Z,21.20
2022-10-22T23:22:25.003Z,19.52
2022-10-22T23:25:52.369Z,18.23
2022-10-22T23:32:00.525Z,18.83
2022-10-22T23:34:32.997Z,20.95
2022-10-22T23:37:05.217Z,18.13
2022-10-22T23:39:37.250Z,16.17
2022-10-22T23:42:10.637Z,18.85
2022-10-22T23:47:35.169Z,18.23
2022-10-22T23:50:37.311Z,20.40
2022-10-22T23:53:17.012Z,16.55
2022-10-22T23:55:52.827Z,15.88
2022-10-22T23:58:51.572Z,16.65
